createdAt,value
2019-03-02T00:01:09.769Z,5.23
2019-03-02T00:03:48.116Z,5.57
2019-03-02T00:06:24.583Z,5.50
2019-03-02T00:09:02.889Z,4.77
2019-03-02T00:11:38.366Z,4.87
2019-03-02T00:14:15.759Z,5.30
2019-03-02T00:16:55.974Z,5.00
2019-03-02T00:19:32.370Z,4.80
2019-03-02T00:22:09.362Z,4.70
2019-03-02T00:24:44.389Z,4.63
2019-03-02T00:27:21.194Z,4.93
2019-03-02T00:30:00.288Z,4.73
2019-03-02T00:32:41.506Z,4.53
2019-03-02T00:35:15.377Z,5.93
2019-03-02T00:37:57.945Z,5.03
2019-03-02T00:40:33.921Z,5.33
2019-03-02T00:43:10.060Z,5.30
2019-03-02T00:45:49.856Z,5.40
2019-03-02T00:48:27.933Z,5.20
2019-03-02T00:51:11.149Z,4.67
2019-03-02T00:53:43.367Z,5.33
2019-03-02T00:56:18.371Z,5.43
2019-03-02T00:58:56.850Z,4.70
2019-03-02T01:01:35.372Z,5.67
2019-03-02T01:04:13.882Z,5.97
2019-03-02T01:06:51.301Z,6.00
2019-03-02T01:09:26.201Z,5.07
2019-03-02T01:12:01.368Z,5.13
2019-03-02T01:14:45.625Z,5.73
2019-03-02T01:17:22.995Z,5.63
2019-03-02T01:19:57.802Z,6.00
2019-03-02T01:22:33.370Z,7.10
2019-03-02T01:25:13.346Z,6.37
2019-03-02T01:27:50.896Z,6.93
2019-03-02T01:30:30.057Z,6.43
2019-03-02T01:33:25.193Z,7.07
2019-03-02T01:36:02.014Z,6.60
2019-03-02T01:38:43.201Z,6.20
2019-03-02T01:41:19.066Z,7.27
2019-03-02T01:43:53.860Z,7.80
2019-03-02T01:46:32.796Z,6.63
2019-03-02T01:49:12.939Z,7.17
2019-03-02T01:51:54.651Z,6.73
2019-03-02T01:54:37.958Z,7.73
2019-03-02T01:57:16.786Z,6.90
2019-03-02T01:59:56.128Z,8.10
2019-03-02T02:02:32.701Z,7.57
2019-03-02T02:05:09.764Z,8.20
2019-03-02T02:07:54.036Z,8.13
2019-03-02T02:10:32.130Z,7.57
2019-03-02T02:13:10.392Z,8.57
2019-03-02T02:15:47.920Z,7.70
2019-03-02T02:18:27.424Z,7.87
2019-03-02T02:20:59.834Z,8.80
2019-03-02T02:23:38.776Z,8.43
2019-03-02T02:26:12.989Z,8.80
2019-03-02T02:28:49.026Z,8.83
2019-03-02T02:31:24.880Z,8.13
2019-03-02T02:33:59.926Z,8.63
2019-03-02T02:36:37.832Z,8.23
2019-03-02T02:39:17.411Z,7.87
2019-03-02T02:41:54.031Z,7.70
2019-03-02T02:44:33.292Z,8.20
2019-03-02T02:47:12.266Z,8.10
2019-03-02T02:49:51.029Z,7.60
2019-03-02T02:52:36.086Z,7.07
2019-03-02T02:55:11.423Z,7.63
2019-03-02T02:57:46.968Z,7.43
2019-03-02T03:00:40.218Z,7.57
2019-03-02T03:03:15.885Z,7.23
2019-03-02T03:05:55.689Z,7.73
2019-03-02T03:08:49.899Z,7.70
2019-03-02T03:11:28.983Z,9.10
2019-03-02T03:14:03.860Z,7.53
2019-03-02T03:16:42.990Z,7.57
2019-03-02T03:19:31.185Z,7.70
2019-03-02T03:22:11.909Z,7.63
2019-03-02T03:24:53.909Z,8.07
2019-03-02T03:27:28.422Z,8.70
2019-03-02T03:30:04.453Z,7.87
2019-03-02T03:32:54.186Z,8.50
2019-03-02T03:35:20.449Z,8.37
2019-03-02T03:37:59.306Z,8.40
2019-03-02T03:40:32.908Z,8.57
2019-03-02T03:43:10.314Z,7.60
2019-03-02T03:45:46.043Z,7.10
2019-03-02T03:48:19.839Z,7.80
2019-03-02T03:50:58.971Z,7.63
2019-03-02T03:53:33.427Z,7.60
2019-03-02T03:56:07.433Z,8.33
2019-03-02T03:58:46.534Z,7.67
2019-03-02T04:01:27.725Z,7.37
2019-03-02T04:04:04.187Z,7.57
2019-03-02T04:06:40.041Z,7.90
2019-03-02T04:09:14.648Z,7.83
2019-03-02T04:11:49.887Z,8.33
2019-03-02T04:14:24.793Z,7.73
2019-03-02T04:17:01.816Z,8.50
2019-03-02T04:19:42.773Z,8.20
2019-03-02T04:22:25.791Z,9.20
2019-03-02T04:25:02.427Z,8.50
2019-03-02T04:27:37.907Z,7.83
2019-03-02T04:30:14.785Z,8.67
2019-03-02T04:32:49.435Z,8.47
2019-03-02T04:35:24.235Z,8.27
2019-03-02T04:38:02.199Z,8.07
2019-03-02T04:40:37.448Z,8.57
2019-03-02T04:43:12.449Z,8.00
2019-03-02T04:45:53.996Z,8.77
2019-03-02T04:48:35.735Z,9.00
2019-03-02T04:54:18.231Z,8.00
2019-03-02T05:00:36.076Z,7.80
2019-03-02T05:06:56.180Z,8.97
2019-03-02T05:09:31.004Z,9.17
2019-03-02T05:12:05.470Z,8.17
2019-03-02T05:18:27.994Z,8.17
2019-03-02T05:21:05.071Z,8.47
2019-03-02T05:23:45.035Z,8.57
2019-03-02T05:26:24.466Z,8.83
2019-03-02T05:28:59.187Z,8.43
2019-03-02T05:31:40.988Z,8.50
2019-03-02T05:34:18.876Z,8.27
2019-03-02T05:37:17.667Z,8.20
2019-03-02T05:40:00.899Z,9.20
2019-03-02T05:46:21.943Z,9.23
2019-03-02T05:49:05.905Z,8.60
2019-03-02T05:51:42.640Z,8.80
2019-03-02T05:54:24.332Z,9.20
2019-03-02T05:57:00.691Z,8.97
2019-03-02T05:59:35.476Z,8.87
2019-03-02T06:02:18.144Z,8.70
2019-03-02T06:04:53.582Z,9.57
2019-03-02T06:07:27.891Z,9.27
2019-03-02T06:10:04.385Z,9.40
2019-03-02T06:12:41.042Z,10.27
2019-03-02T06:15:18.948Z,9.47
2019-03-02T06:18:04.411Z,9.60
2019-03-02T06:20:44.627Z,8.87
2019-03-02T06:23:22.874Z,9.73
2019-03-02T06:26:00.072Z,9.80
2019-03-02T06:28:36.020Z,9.93
2019-03-02T06:31:19.144Z,10.33
2019-03-02T06:34:00.418Z,10.27
2019-03-02T06:36:36.946Z,9.77
2019-03-02T06:39:17.642Z,9.77
2019-03-02T06:41:56.594Z,9.83
2019-03-02T06:44:35.046Z,9.67
2019-03-02T06:47:12.185Z,10.77
2019-03-02T06:50:00.530Z,9.83
2019-03-02T06:52:42.525Z,9.63
2019-03-02T06:55:20.809Z,9.37
2019-03-02T06:57:54.060Z,10.00
2019-03-02T07:00:28.640Z,10.57
2019-03-02T07:03:10.064Z,9.27
2019-03-02T07:05:46.292Z,9.67
2019-03-02T07:08:22.753Z,9.60
2019-03-02T07:10:58.871Z,9.53
2019-03-02T07:13:37.530Z,8.90
2019-03-02T07:16:16.605Z,9.37
2019-03-02T07:19:21.064Z,10.03
2019-03-02T07:21:57.607Z,9.57
2019-03-02T07:24:32.888Z,10.50
2019-03-02T07:27:14.290Z,10.47
2019-03-02T07:29:55.096Z,10.13
2019-03-02T07:32:29.080Z,10.30
2019-03-02T07:35:08.071Z,10.30
2019-03-02T07:37:45.516Z,8.87
2019-03-02T07:40:24.397Z,9.67
2019-03-02T07:43:00.077Z,10.00
2019-03-02T07:45:41.076Z,9.33
2019-03-02T07:48:21.975Z,9.77
2019-03-02T07:51:01.129Z,9.40
2019-03-02T07:53:36.760Z,9.63
2019-03-02T07:56:13.860Z,9.60
2019-03-02T07:58:51.832Z,10.47
2019-03-02T08:01:30.678Z,11.33
2019-03-02T08:04:10.827Z,9.50
2019-03-02T08:06:46.693Z,9.27
2019-03-02T08:12:41.077Z,10.33
2019-03-02T08:15:25.865Z,9.53
2019-03-02T08:18:00.674Z,9.57
2019-03-02T08:24:22.634Z,10.70
2019-03-02T08:27:05.183Z,10.80
2019-03-02T08:33:09.588Z,9.73
2019-03-02T08:35:48.709Z,9.77
2019-03-02T08:38:26.600Z,10.90
2019-03-02T08:41:05.745Z,10.20
2019-03-02T08:43:46.156Z,10.87
2019-03-02T08:46:28.089Z,10.13
2019-03-02T08:49:06.460Z,10.33
2019-03-02T08:51:53.512Z,10.23
2019-03-02T08:54:34.693Z,10.17
2019-03-02T09:07:21.659Z,9.60
2019-03-02T09:09:57.726Z,10.43
2019-03-02T09:12:35.223Z,9.73
2019-03-02T09:15:22.184Z,16.47
2019-03-02T09:17:58.419Z,9.70
2019-03-02T09:20:36.925Z,9.33
2019-03-02T09:23:16.040Z,9.43
2019-03-02T09:29:40.239Z,9.63
2019-03-02T09:32:14.086Z,11.37
2019-03-02T09:34:54.608Z,9.70
2019-03-02T09:37:33.945Z,9.97
2019-03-02T09:40:10.169Z,10.00
2019-03-02T09:46:28.313Z,9.13
2019-03-02T09:49:07.328Z,9.67
2019-03-02T09:51:48.235Z,9.90
2019-03-02T09:54:29.547Z,9.73
2019-03-02T09:57:08.882Z,10.53
2019-03-02T09:59:45.466Z,9.63
2019-03-02T10:02:22.425Z,9.67
2019-03-02T10:05:14.703Z,8.77
2019-03-02T10:07:54.055Z,9.90
2019-03-02T10:10:31.596Z,10.53
2019-03-02T10:13:09.802Z,9.03
2019-03-02T10:15:53.030Z,9.70
2019-03-02T10:18:27.651Z,10.07
2019-03-02T10:21:07.393Z,9.13
2019-03-02T10:23:43.213Z,9.93
2019-03-02T10:26:23.308Z,9.47
2019-03-02T10:28:59.943Z,8.70
2019-03-02T10:31:36.228Z,9.17
2019-03-02T10:34:19.985Z,9.03
2019-03-02T10:40:19.605Z,8.80
2019-03-02T10:42:58.229Z,8.70
2019-03-02T10:48:41.771Z,9.17
2019-03-02T10:54:48.275Z,9.20
2019-03-02T10:57:32.155Z,9.33
2019-03-02T11:00:09.284Z,9.73
2019-03-02T11:06:34.130Z,8.47
2019-03-02T11:09:27.157Z,8.73
2019-03-02T11:12:30.049Z,9.10
2019-03-02T11:15:29.341Z,9.20
2019-03-02T11:18:34.645Z,9.90
2019-03-02T11:21:24.685Z,8.93
2019-03-02T11:24:17.021Z,9.20
2019-03-02T11:27:04.136Z,9.37
2019-03-02T11:33:41.714Z,8.47
2019-03-02T11:36:40.522Z,8.80
2019-03-02T11:39:39.440Z,8.40
2019-03-02T11:42:26.557Z,8.27
2019-03-02T11:45:31.283Z,9.20
2019-03-02T11:48:56.939Z,9.17
2019-03-02T11:51:45.764Z,9.10
2019-03-02T11:54:51.616Z,8.83
2019-03-02T11:57:48.726Z,8.17
2019-03-02T12:00:44.275Z,8.07
2019-03-02T12:03:44.310Z,9.67
2019-03-02T12:06:41.017Z,8.67
2019-03-02T12:09:36.147Z,9.03
2019-03-02T12:12:23.692Z,8.23
2019-03-02T12:15:24.753Z,7.90
2019-03-02T12:18:04.727Z,6.97
2019-03-02T12:21:05.760Z,6.87
2019-03-02T12:24:03.468Z,7.87
2019-03-02T12:33:32.726Z,7.10
2019-03-02T12:36:17.314Z,6.23
2019-03-02T12:42:58.062Z,7.50
2019-03-02T12:45:56.236Z,6.03
2019-03-02T12:49:00.159Z,6.30
2019-03-02T12:51:58.337Z,6.27
2019-03-02T12:55:05.311Z,6.00
2019-03-02T12:58:02.260Z,5.60
2019-03-02T13:00:47.321Z,6.43
2019-03-02T13:03:44.677Z,6.60
2019-03-02T13:06:41.416Z,6.00
2019-03-02T13:09:36.857Z,5.67
2019-03-02T13:16:01.955Z,5.43
2019-03-02T13:22:31.836Z,5.60
2019-03-02T13:28:50.159Z,5.50
2019-03-02T13:31:58.702Z,5.47
2019-03-02T13:34:52.252Z,5.40
2019-03-02T13:37:57.144Z,5.70
2019-03-02T13:40:47.164Z,4.43
2019-03-02T13:43:37.755Z,5.10
2019-03-02T13:49:56.234Z,5.00
2019-03-02T13:52:51.149Z,4.73
2019-03-02T13:55:42.348Z,4.87
2019-03-02T13:58:43.185Z,4.83
2019-03-02T14:01:45.253Z,4.67
2019-03-02T14:08:09.252Z,4.93
2019-03-02T14:11:02.811Z,5.03
2019-03-02T14:14:03.715Z,5.20
2019-03-02T14:16:59.861Z,4.80
2019-03-02T14:19:48.237Z,6.37
2019-03-02T14:22:36.165Z,4.20
2019-03-02T14:25:51.348Z,4.33
2019-03-02T14:29:08.174Z,4.63
2019-03-02T14:31:58.554Z,4.27
2019-03-02T14:34:53.762Z,4.53
2019-03-02T14:41:16.240Z,4.13
2019-03-02T14:47:43.761Z,4.37
2019-03-02T14:50:52.525Z,4.70
2019-03-02T14:54:08.877Z,5.43
2019-03-02T14:56:59.322Z,5.20
2019-03-02T15:03:37.456Z,4.77
2019-03-02T15:06:44.775Z,4.67
2019-03-02T15:10:01.462Z,5.00
2019-03-02T15:13:02.096Z,4.73
2019-03-02T15:15:58.730Z,4.37
2019-03-02T15:18:51.485Z,5.17
2019-03-02T15:21:55.183Z,4.63
2019-03-02T15:24:53.130Z,4.23
2019-03-02T15:34:14.846Z,5.33
2019-03-02T15:37:35.832Z,4.80
2019-03-02T15:40:49.376Z,5.43
2019-03-02T15:43:47.549Z,5.30
2019-03-02T15:46:49.949Z,5.57
2019-03-02T15:49:45.528Z,4.67
2019-03-02T15:52:47.018Z,5.53
2019-03-02T15:55:45.236Z,5.30
2019-03-02T15:58:51.005Z,4.73
2019-03-02T16:02:04.169Z,4.90
2019-03-02T16:05:11.279Z,5.40
2019-03-02T16:08:10.617Z,5.10
2019-03-02T16:11:03.688Z,5.23
2019-03-02T16:14:05.222Z,5.07
2019-03-02T16:17:09.159Z,4.97
2019-03-02T16:20:22.584Z,4.47
2019-03-02T16:23:26.701Z,5.07
2019-03-02T16:26:25.079Z,5.10
2019-03-02T16:29:19.168Z,5.70
2019-03-02T16:32:20.214Z,5.53
2019-03-02T16:35:25.768Z,4.77
2019-03-02T16:38:27.039Z,5.13
2019-03-02T16:41:25.996Z,4.93
2019-03-02T16:44:18.858Z,4.53
2019-03-02T16:47:21.747Z,5.33
2019-03-02T16:50:07.636Z,5.63
2019-03-02T16:53:02.132Z,5.43
2019-03-02T16:56:04.284Z,5.57
2019-03-02T16:59:14.852Z,5.77
2019-03-02T17:02:05.277Z,6.07
2019-03-02T17:05:12.644Z,6.20
2019-03-02T17:08:11.833Z,5.00
2019-03-02T17:11:08.986Z,5.63
2019-03-02T17:13:57.123Z,5.30
2019-03-02T17:16:50.809Z,6.37
2019-03-02T17:19:42.581Z,5.83
2019-03-02T17:25:42.876Z,5.70
2019-03-02T17:32:25.572Z,6.40
2019-03-02T17:35:38.246Z,6.23
2019-03-02T17:38:51.326Z,6.37
2019-03-02T17:41:51.273Z,5.77
2019-03-02T17:45:01.359Z,6.87
2019-03-02T17:47:46.896Z,6.10
2019-03-02T17:51:01.260Z,6.10
2019-03-02T17:53:50.366Z,6.67
2019-03-02T17:56:37.065Z,6.27
2019-03-02T17:59:31.308Z,6.27
2019-03-02T18:02:15.290Z,5.77
2019-03-02T18:05:23.870Z,6.50
2019-03-02T18:08:08.780Z,5.80
2019-03-02T18:11:13.351Z,5.67
2019-03-02T18:14:03.648Z,5.70
2019-03-02T18:20:15.885Z,6.43
2019-03-02T18:26:25.256Z,5.10
2019-03-02T18:32:30.211Z,5.73
2019-03-02T18:35:07.966Z,5.33
2019-03-02T18:37:49.720Z,5.33
2019-03-02T18:40:24.912Z,5.43
2019-03-02T18:43:08.134Z,5.33
2019-03-02T18:45:45.942Z,5.57
2019-03-02T18:48:45.875Z,5.07
2019-03-02T18:51:46.894Z,5.50
2019-03-02T18:54:27.659Z,5.70
2019-03-02T18:57:04.140Z,5.43
2019-03-02T18:59:44.884Z,6.27
2019-03-02T19:05:52.646Z,5.30
2019-03-02T19:08:34.938Z,5.33
2019-03-02T19:11:15.674Z,5.50
2019-03-02T19:17:20.866Z,5.23
2019-03-02T19:19:57.109Z,5.67
2019-03-02T19:22:32.963Z,6.10
2019-03-02T19:28:48.992Z,6.00
2019-03-02T19:31:29.433Z,5.60
2019-03-02T19:37:37.521Z,6.63
2019-03-02T19:40:20.034Z,6.10
2019-03-02T19:43:02.787Z,6.27
2019-03-02T19:45:39.270Z,5.73
2019-03-02T19:48:19.414Z,6.67
2019-03-02T20:01:13.344Z,5.70
2019-03-02T20:03:54.068Z,6.20
2019-03-02T20:06:31.396Z,6.20
2019-03-02T20:09:09.295Z,6.27
2019-03-02T20:11:45.807Z,6.53
2019-03-02T20:14:24.795Z,5.67
2019-03-02T20:17:07.311Z,6.80
2019-03-02T20:19:46.501Z,6.13
2019-03-02T20:22:27.412Z,6.50
2019-03-02T20:25:09.671Z,5.77
2019-03-02T20:27:43.847Z,6.20
2019-03-02T20:30:24.796Z,6.40
2019-03-02T20:33:06.326Z,6.50
2019-03-02T20:35:41.622Z,6.63
2019-03-02T20:38:18.337Z,5.87
2019-03-02T20:40:55.783Z,6.57
2019-03-02T20:43:34.098Z,6.23
2019-03-02T20:46:15.902Z,6.43
2019-03-02T20:48:57.062Z,5.97
2019-03-02T20:51:31.890Z,6.23
2019-03-02T20:54:07.743Z,5.60
2019-03-02T20:56:47.209Z,5.40
2019-03-02T21:02:19.320Z,5.23
2019-03-02T21:04:55.737Z,5.80
2019-03-02T21:07:32.811Z,5.40
2019-03-02T21:10:10.922Z,5.10
2019-03-02T21:12:47.806Z,4.17
2019-03-02T21:15:29.995Z,4.30
2019-03-02T21:18:06.667Z,3.67
2019-03-02T21:20:50.934Z,4.40
2019-03-02T21:23:28.856Z,3.87
2019-03-02T21:26:05.987Z,4.00
2019-03-02T21:28:43.604Z,4.03
2019-03-02T21:31:20.679Z,3.67
2019-03-02T21:34:00.031Z,3.40
2019-03-02T21:36:42.009Z,3.37
2019-03-02T21:39:28.931Z,3.00
2019-03-02T21:42:08.872Z,3.20
2019-03-02T21:44:47.797Z,3.30
2019-03-02T21:47:44.136Z,3.53
2019-03-02T21:50:24.324Z,2.90
2019-03-02T21:53:03.626Z,2.93
2019-03-02T21:55:43.321Z,3.30
2019-03-02T21:58:30.922Z,2.83
2019-03-02T22:01:35.216Z,3.00
2019-03-02T22:04:11.669Z,2.57
2019-03-02T22:06:46.325Z,2.60
2019-03-02T22:09:25.322Z,2.73
2019-03-02T22:12:01.340Z,2.60
2019-03-02T22:14:36.354Z,2.83
2019-03-02T22:17:15.323Z,2.03
2019-03-02T22:19:55.601Z,2.70
2019-03-02T22:22:32.405Z,2.90
2019-03-02T22:25:23.069Z,2.27
2019-03-02T22:28:04.253Z,1.93
2019-03-02T22:30:39.867Z,2.17
2019-03-02T22:33:16.984Z,2.30
2019-03-02T22:35:57.965Z,2.20
2019-03-02T22:38:32.718Z,2.20
2019-03-02T22:41:10.267Z,2.10
2019-03-02T22:43:49.016Z,1.90
2019-03-02T22:46:32.429Z,1.97
2019-03-02T22:49:08.754Z,1.90
2019-03-02T22:51:47.073Z,2.13
2019-03-02T22:54:27.350Z,2.10
2019-03-02T23:01:22.234Z,1.70
2019-03-02T23:04:01.747Z,2.00
2019-03-02T23:06:37.460Z,1.60
2019-03-02T23:09:21.283Z,2.17
2019-03-02T23:11:56.947Z,1.83
2019-03-02T23:14:41.609Z,1.90
2019-03-02T23:17:17.530Z,2.00
2019-03-02T23:19:59.048Z,1.70
2019-03-02T23:22:36.341Z,1.90
2019-03-02T23:25:22.820Z,1.90
2019-03-02T23:27:58.821Z,1.67
2019-03-02T23:30:38.445Z,1.53
2019-03-02T23:33:17.705Z,1.90
2019-03-02T23:36:02.230Z,1.67
2019-03-02T23:38:44.227Z,1.70
2019-03-02T23:41:20.827Z,1.80
2019-03-02T23:44:10.053Z,1.77
2019-03-02T23:46:51.234Z,1.50
2019-03-02T23:49:39.371Z,1.70
2019-03-02T23:52:23.625Z,1.50
2019-03-02T23:55:05.620Z,1.90
2019-03-02T23:57:40.757Z,1.60
